sensor_id;sensor_type;location;lat;lon;timestamp;pressure;altitude;pressure_sealevel;temperature;humidity
21566;BME280;10943;48.738;9.320;2022-09-17T00:01:29;98457.28;;;13.82;63.60
21566;BME280;10943;48.738;9.320;2022-09-17T00:03:59;98466.81;;;13.92;62.74
21566;BME280;10943;48.738;9.320;2022-09-17T00:06:34;98454.28;;;13.94;62.55
21566;BME280;10943;48.738;9.320;2022-09-17T00:09:05;98457.59;;;13.86;61.82
21566;BME280;10943;48.738;9.320;2022-09-17T00:11:39;98454.53;;;13.88;62.42
21566;BME280;10943;48.738;9.320;2022-09-17T00:14:14;98459.03;;;13.94;62.15
21566;BME280;10943;48.738;9.320;2022-09-17T00:16:46;98460.66;;;13.84;62.52
21566;BME280;10943;48.738;9.320;2022-09-17T00:19:19;98453.56;;;13.56;63.32
21566;BME280;10943;48.738;9.320;2022-09-17T00:21:49;98459.53;;;13.80;62.11
21566;BME280;10943;48.738;9.320;2022-09-17T00:24:19;98465.13;;;13.96;61.35
21566;BME280;10943;48.738;9.320;2022-09-17T00:26:48;98467.13;;;14.06;61.41
21566;BME280;10943;48.738;9.320;2022-09-17T00:29:16;98471.53;;;13.86;62.34
21566;BME280;10943;48.738;9.320;2022-09-17T00:31:43;98470.94;;;13.84;62.34
21566;BME280;10943;48.738;9.320;2022-09-17T00:34:11;98473.75;;;13.89;61.87
21566;BME280;10943;48.738;9.320;2022-09-17T00:36:39;98464.75;;;13.66;62.75
21566;BME280;10943;48.738;9.320;2022-09-17T00:39:10;98468.66;;;13.70;62.64
21566;BME280;10943;48.738;9.320;2022-09-17T00:41:38;98478.19;;;13.80;62.27
21566;BME280;10943;48.738;9.320;2022-09-17T00:52:52;98469.72;;;13.59;62.44
21566;BME280;10943;48.738;9.320;2022-09-17T00:55:28;98470.38;;;13.77;61.92
21566;BME280;10943;48.738;9.320;2022-09-17T00:58:01;98468.75;;;13.86;61.43
21566;BME280;10943;48.738;9.320;2022-09-17T01:00:31;98478.47;;;13.83;61.68
21566;BME280;10943;48.738;9.320;2022-09-17T01:02:59;98474.63;;;13.90;60.75
21566;BME280;10943;48.738;9.320;2022-09-17T01:05:49;98475.66;;;13.73;61.55
21566;BME280;10943;48.738;9.320;2022-09-17T01:25:30;98486.25;;;13.33;62.58
21566;BME280;10943;48.738;9.320;2022-09-17T01:39:59;98491.31;;;12.99;63.85
21566;BME280;10943;48.738;9.320;2022-09-17T01:43:03;98499.84;;;12.87;63.90
21566;BME280;10943;48.738;9.320;2022-09-17T01:45:50;98504.72;;;12.75;64.48
21566;BME280;10943;48.738;9.320;2022-09-17T01:48:47;98493.19;;;12.61;64.73
21566;BME280;10943;48.738;9.320;2022-09-17T01:51:23;98504.56;;;12.59;64.85
21566;BME280;10943;48.738;9.320;2022-09-17T01:54:00;98507.69;;;12.35;65.55
21566;BME280;10943;48.738;9.320;2022-09-17T01:56:38;98508.28;;;12.43;65.68
21566;BME280;10943;48.738;9.320;2022-09-17T02:01:55;98500.53;;;12.72;65.00
21566;BME280;10943;48.738;9.320;2022-09-17T02:04:39;98508.91;;;12.77;65.13
21566;BME280;10943;48.738;9.320;2022-09-17T02:07:18;98511.47;;;12.84;64.42
21566;BME280;10943;48.738;9.320;2022-09-17T02:09:57;98510.00;;;13.09;63.90
21566;BME280;10943;48.738;9.320;2022-09-17T02:12:37;98509.88;;;12.93;64.32
21566;BME280;10943;48.738;9.320;2022-09-17T02:15:23;98516.03;;;13.33;63.47
21566;BME280;10943;48.738;9.320;2022-09-17T02:18:07;98528.59;;;13.35;63.20
21566;BME280;10943;48.738;9.320;2022-09-17T02:20:49;98516.78;;;13.61;62.26
21566;BME280;10943;48.738;9.320;2022-09-17T02:23:30;98515.94;;;13.55;62.35
21566;BME280;10943;48.738;9.320;2022-09-17T02:26:09;98508.03;;;13.36;62.48
21566;BME280;10943;48.738;9.320;2022-09-17T02:31:19;98499.03;;;13.29;62.62
21566;BME280;10943;48.738;9.320;2022-09-17T02:33:51;98497.34;;;12.91;64.30
21566;BME280;10943;48.738;9.320;2022-09-17T02:36:23;98510.72;;;12.61;65.50
21566;BME280;10943;48.738;9.320;2022-09-17T02:38:59;98503.03;;;12.74;64.94
21566;BME280;10943;48.738;9.320;2022-09-17T02:59:33;98499.34;;;12.95;64.50
21566;BME280;10943;48.738;9.320;2022-09-17T03:02:19;98486.69;;;13.15;62.97
21566;BME280;10943;48.738;9.320;2022-09-17T03:04:52;98485.00;;;13.14;62.92
21566;BME280;10943;48.738;9.320;2022-09-17T03:07:22;98487.81;;;13.19;62.58
21566;BME280;10943;48.738;9.320;2022-09-17T03:09:50;98487.38;;;13.32;62.25
21566;BME280;10943;48.738;9.320;2022-09-17T03:12:18;98487.44;;;13.38;61.55
21566;BME280;10943;48.738;9.320;2022-09-17T03:14:45;98487.34;;;13.27;61.98
21566;BME280;10943;48.738;9.320;2022-09-17T03:17:12;98489.44;;;13.10;62.41
21566;BME280;10943;48.738;9.320;2022-09-17T03:19:40;98482.25;;;13.19;61.96
21566;BME280;10943;48.738;9.320;2022-09-17T03:22:08;98494.22;;;12.82;63.16
21566;BME280;10943;48.738;9.320;2022-09-17T03:24:35;98495.03;;;12.50;64.75
21566;BME280;10943;48.738;9.320;2022-09-17T03:27:03;98493.50;;;12.64;63.93
21566;BME280;10943;48.738;9.320;2022-09-17T03:29:31;98497.69;;;12.67;63.67
21566;BME280;10943;48.738;9.320;2022-09-17T03:31:58;98499.59;;;12.61;64.08
21566;BME280;10943;48.738;9.320;2022-09-17T03:34:26;98502.25;;;12.78;63.25
21566;BME280;10943;48.738;9.320;2022-09-17T03:36:54;98504.63;;;12.64;63.53
21566;BME280;10943;48.738;9.320;2022-09-17T03:39:21;98511.59;;;12.67;63.55
21566;BME280;10943;48.738;9.320;2022-09-17T03:41:48;98503.47;;;12.60;63.61
21566;BME280;10943;48.738;9.320;2022-09-17T03:44:16;98513.41;;;12.51;63.98
21566;BME280;10943;48.738;9.320;2022-09-17T03:46:45;98511.13;;;12.48;64.01
21566;BME280;10943;48.738;9.320;2022-09-17T03:49:12;98507.63;;;12.58;64.01
21566;BME280;10943;48.738;9.320;2022-09-17T03:51:40;98508.50;;;12.63;63.19
21566;BME280;10943;48.738;9.320;2022-09-17T03:54:07;98516.56;;;12.65;63.42
21566;BME280;10943;48.738;9.320;2022-09-17T03:56:35;98519.84;;;12.57;63.62
21566;BME280;10943;48.738;9.320;2022-09-17T03:59:02;98512.97;;;12.64;63.49
21566;BME280;10943;48.738;9.320;2022-09-17T04:01:30;98510.41;;;12.58;63.93
21566;BME280;10943;48.738;9.320;2022-09-17T04:03:57;98513.88;;;12.75;63.80
21566;BME280;10943;48.738;9.320;2022-09-17T04:06:24;98520.00;;;12.72;63.46
21566;BME280;10943;48.738;9.320;2022-09-17T04:08:52;98513.66;;;12.77;63.70
21566;BME280;10943;48.738;9.320;2022-09-17T04:11:19;98515.84;;;12.75;62.86
21566;BME280;10943;48.738;9.320;2022-09-17T04:13:46;98515.47;;;12.66;62.98
21566;BME280;10943;48.738;9.320;2022-09-17T04:16:14;98517.69;;;12.36;63.77
21566;BME280;10943;48.738;9.320;2022-09-17T04:18:42;98521.41;;;12.20;64.63
21566;BME280;10943;48.738;9.320;2022-09-17T04:21:09;98523.59;;;12.18;64.76
21566;BME280;10943;48.738;9.320;2022-09-17T04:23:36;98520.44;;;12.31;64.63
21566;BME280;10943;48.738;9.320;2022-09-17T04:26:04;98523.66;;;12.50;63.90
21566;BME280;10943;48.738;9.320;2022-09-17T04:28:31;98523.47;;;12.57;63.20
21566;BME280;10943;48.738;9.320;2022-09-17T04:30:59;98522.13;;;12.65;63.42
21566;BME280;10943;48.738;9.320;2022-09-17T04:33:26;98523.25;;;12.64;63.33
21566;BME280;10943;48.738;9.320;2022-09-17T04:35:54;98529.22;;;12.78;62.10
21566;BME280;10943;48.738;9.320;2022-09-17T04:38:21;98537.38;;;12.57;62.97
21566;BME280;10943;48.738;9.320;2022-09-17T04:40:48;98539.31;;;12.57;63.21
21566;BME280;10943;48.738;9.320;2022-09-17T04:43:17;98545.75;;;12.62;63.35
21566;BME280;10943;48.738;9.320;2022-09-17T04:45:47;98543.44;;;12.54;63.97
21566;BME280;10943;48.738;9.320;2022-09-17T04:48:40;98545.44;;;12.86;62.74
21566;BME280;10943;48.738;9.320;2022-09-17T04:51:07;98546.41;;;13.02;61.78
21566;BME280;10943;48.738;9.320;2022-09-17T04:53:35;98548.88;;;12.98;61.71
21566;BME280;10943;48.738;9.320;2022-09-17T04:56:04;98548.53;;;13.22;60.93
21566;BME280;10943;48.738;9.320;2022-09-17T04:58:32;98557.06;;;13.10;61.24
21566;BME280;10943;48.738;9.320;2022-09-17T05:00:59;98559.69;;;13.22;60.28
21566;BME280;10943;48.738;9.320;2022-09-17T05:03:26;98553.34;;;13.32;60.35
21566;BME280;10943;48.738;9.320;2022-09-17T05:05:53;98563.50;;;13.16;62.24
21566;BME280;10943;48.738;9.320;2022-09-17T05:08:21;98565.72;;;13.46;59.94
21566;BME280;10943;48.738;9.320;2022-09-17T05:10:51;98571.84;;;13.43;59.56
21566;BME280;10943;48.738;9.320;2022-09-17T05:13:18;98571.06;;;13.53;58.84
21566;BME280;10943;48.738;9.320;2022-09-17T05:15:45;98563.97;;;13.08;60.39
21566;BME280;10943;48.738;9.320;2022-09-17T05:18:13;98576.44;;;13.27;60.08
21566;BME280;10943;48.738;9.320;2022-09-17T05:20:42;98573.97;;;13.36;60.27
21566;BME280;10943;48.738;9.320;2022-09-17T05:23:09;98567.72;;;13.51;58.97
21566;BME280;10943;48.738;9.320;2022-09-17T05:25:36;98568.19;;;13.43;59.07
21566;BME280;10943;48.738;9.320;2022-09-17T05:28:04;98564.34;;;13.49;59.03
21566;BME280;10943;48.738;9.320;2022-09-17T05:30:32;98572.25;;;13.62;58.17
21566;BME280;10943;48.738;9.320;2022-09-17T05:33:05;98569.91;;;13.49;58.37
21566;BME280;10943;48.738;9.320;2022-09-17T05:35:34;98565.63;;;13.74;58.03
21566;BME280;10943;48.738;9.320;2022-09-17T05:38:05;98571.19;;;13.74;58.08
21566;BME280;10943;48.738;9.320;2022-09-17T05:40:34;98580.84;;;13.61;58.18
21566;BME280;10943;48.738;9.320;2022-09-17T05:43:05;98587.69;;;13.80;58.17
21566;BME280;10943;48.738;9.320;2022-09-17T05:45:34;98578.53;;;13.85;57.43
21566;BME280;10943;48.738;9.320;2022-09-17T05:48:11;98575.81;;;14.00;56.99
21566;BME280;10943;48.738;9.320;2022-09-17T05:50:39;98577.00;;;13.67;57.86
21566;BME280;10943;48.738;9.320;2022-09-17T05:53:12;98581.50;;;13.73;57.30
21566;BME280;10943;48.738;9.320;2022-09-17T05:55:40;98588.47;;;13.70;57.84
21566;BME280;10943;48.738;9.320;2022-09-17T05:58:11;98587.31;;;13.66;57.99
21566;BME280;10943;48.738;9.320;2022-09-17T06:00:39;98588.31;;;13.93;57.11
21566;BME280;10943;48.738;9.320;2022-09-17T06:03:10;98587.97;;;13.84;56.77
21566;BME280;10943;48.738;9.320;2022-09-17T06:05:40;98595.69;;;13.66;57.82
21566;BME280;10943;48.738;9.320;2022-09-17T06:08:08;98600.97;;;14.16;56.67
21566;BME280;10943;48.738;9.320;2022-09-17T06:10:37;98604.75;;;14.47;55.93
21566;BME280;10943;48.738;9.320;2022-09-17T06:13:04;98605.69;;;14.74;55.26
21566;BME280;10943;48.738;9.320;2022-09-17T06:15:33;98610.75;;;14.87;54.89
21566;BME280;10943;48.738;9.320;2022-09-17T06:18:01;98610.25;;;15.21;52.97
21566;BME280;10943;48.738;9.320;2022-09-17T06:20:28;98603.84;;;15.36;53.54
21566;BME280;10943;48.738;9.320;2022-09-17T06:22:57;98610.28;;;15.57;52.36
21566;BME280;10943;48.738;9.320;2022-09-17T06:25:25;98614.44;;;15.75;52.12
21566;BME280;10943;48.738;9.320;2022-09-17T06:27:52;98619.47;;;15.58;51.78
21566;BME280;10943;48.738;9.320;2022-09-17T06:30:19;98618.06;;;15.65;52.30
21566;BME280;10943;48.738;9.320;2022-09-17T06:32:47;98618.06;;;15.71;52.16
21566;BME280;10943;48.738;9.320;2022-09-17T06:35:14;98614.19;;;15.82;51.58
21566;BME280;10943;48.738;9.320;2022-09-17T06:37:41;98616.69;;;15.73;52.08
21566;BME280;10943;48.738;9.320;2022-09-17T06:40:09;98618.06;;;15.65;52.63
21566;BME280;10943;48.738;9.320;2022-09-17T06:42:37;98621.44;;;15.52;52.21
21566;BME280;10943;48.738;9.320;2022-09-17T06:45:05;98619.75;;;15.77;51.50
21566;BME280;10943;48.738;9.320;2022-09-17T06:47:39;98623.38;;;15.67;52.51
21566;BME280;10943;48.738;9.320;2022-09-17T06:50:06;98631.22;;;15.44;52.54
21566;BME280;10943;48.738;9.320;2022-09-17T06:52:34;98625.63;;;15.44;52.33
21566;BME280;10943;48.738;9.320;2022-09-17T06:55:01;98631.22;;;15.24;52.78
21566;BME280;10943;48.738;9.320;2022-09-17T06:57:28;98624.50;;;15.30;52.53
21566;BME280;10943;48.738;9.320;2022-09-17T06:59:56;98627.56;;;15.18;52.94
21566;BME280;10943;48.738;9.320;2022-09-17T07:02:23;98635.97;;;15.28;52.87
21566;BME280;10943;48.738;9.320;2022-09-17T07:04:52;98633.16;;;15.08;53.16
21566;BME280;10943;48.738;9.320;2022-09-17T07:07:21;98630.38;;;15.13;52.22
21566;BME280;10943;48.738;9.320;2022-09-17T07:09:48;98632.47;;;14.69;53.02
21566;BME280;10943;48.738;9.320;2022-09-17T07:12:15;98629.16;;;14.73;53.49
21566;BME280;10943;48.738;9.320;2022-09-17T07:14:42;98633.63;;;14.89;52.94
21566;BME280;10943;48.738;9.320;2022-09-17T07:17:10;98639.56;;;14.40;54.21
21566;BME280;10943;48.738;9.320;2022-09-17T07:19:37;98643.00;;;14.52;54.47
21566;BME280;10943;48.738;9.320;2022-09-17T07:22:05;98641.88;;;14.48;54.27
21566;BME280;10943;48.738;9.320;2022-09-17T07:24:32;98642.03;;;14.31;55.36
21566;BME280;10943;48.738;9.320;2022-09-17T07:27:00;98650.59;;;14.14;55.46
21566;BME280;10943;48.738;9.320;2022-09-17T07:29:28;98660.53;;;13.99;56.14
21566;BME280;10943;48.738;9.320;2022-09-17T07:31:56;98652.44;;;14.46;54.71
21566;BME280;10943;48.738;9.320;2022-09-17T07:34:25;98669.59;;;14.17;57.17
21566;BME280;10943;48.738;9.320;2022-09-17T07:36:54;98661.88;;;13.92;59.45
21566;BME280;10943;48.738;9.320;2022-09-17T07:39:22;98666.22;;;13.77;60.50
21566;BME280;10943;48.738;9.320;2022-09-17T07:41:49;98665.38;;;13.39;62.77
21566;BME280;10943;48.738;9.320;2022-09-17T07:44:16;98679.28;;;13.72;62.20
21566;BME280;10943;48.738;9.320;2022-09-17T07:46:44;98676.47;;;13.66;64.04
21566;BME280;10943;48.738;9.320;2022-09-17T07:49:11;98674.00;;;13.38;64.29
21566;BME280;10943;48.738;9.320;2022-09-17T07:51:39;98680.91;;;13.62;64.25
21566;BME280;10943;48.738;9.320;2022-09-17T07:54:06;98685.72;;;13.77;65.08
21566;BME280;10943;48.738;9.320;2022-09-17T07:56:34;98681.06;;;13.88;64.80
21566;BME280;10943;48.738;9.320;2022-09-17T07:59:02;98685.44;;;14.16;64.35
21566;BME280;10943;48.738;9.320;2022-09-17T08:01:32;98678.06;;;14.38;62.81
21566;BME280;10943;48.738;9.320;2022-09-17T08:04:01;98698.38;;;14.33;63.75
21566;BME280;10943;48.738;9.320;2022-09-17T08:06:30;98701.47;;;14.36;63.81
21566;BME280;10943;48.738;9.320;2022-09-17T08:08:58;98702.00;;;14.33;63.96
21566;BME280;10943;48.738;9.320;2022-09-17T08:11:29;98702.41;;;14.10;64.96
21566;BME280;10943;48.738;9.320;2022-09-17T08:14:19;98697.69;;;13.73;67.17
21566;BME280;10943;48.738;9.320;2022-09-17T08:16:52;98701.03;;;13.75;65.95
21566;BME280;10943;48.738;9.320;2022-09-17T08:19:20;98696.44;;;13.58;67.83
21566;BME280;10943;48.738;9.320;2022-09-17T08:21:48;98699.72;;;13.82;66.23
21566;BME280;10943;48.738;9.320;2022-09-17T08:24:15;98710.19;;;14.02;66.96
21566;BME280;10943;48.738;9.320;2022-09-17T08:26:43;98696.84;;;14.10;66.81
21566;BME280;10943;48.738;9.320;2022-09-17T08:29:10;98695.16;;;14.09;66.47
21566;BME280;10943;48.738;9.320;2022-09-17T08:31:37;98695.63;;;14.38;66.33
21566;BME280;10943;48.738;9.320;2022-09-17T08:34:09;98690.34;;;14.42;66.53
21566;BME280;10943;48.738;9.320;2022-09-17T08:36:37;98692.94;;;14.59;62.75
21566;BME280;10943;48.738;9.320;2022-09-17T08:39:05;98697.50;;;14.22;63.48
21566;BME280;10943;48.738;9.320;2022-09-17T08:45:11;98696.31;;;14.61;61.92
21566;BME280;10943;48.738;9.320;2022-09-17T08:47:43;98698.13;;;14.88;60.13
21566;BME280;10943;48.738;9.320;2022-09-17T08:50:23;98703.06;;;14.65;60.80
21566;BME280;10943;48.738;9.320;2022-09-17T08:53:38;98706.13;;;14.68;59.78
21566;BME280;10943;48.738;9.320;2022-09-17T08:56:17;98698.47;;;15.12;58.75
21566;BME280;10943;48.738;9.320;2022-09-17T09:07:16;98692.56;;;19.10;47.77
21566;BME280;10943;48.738;9.320;2022-09-17T09:10:02;98693.19;;;19.45;46.87
21566;BME280;10943;48.738;9.320;2022-09-17T09:12:44;98704.41;;;20.49;44.71
21566;BME280;10943;48.738;9.320;2022-09-17T09:18:25;98702.00;;;23.16;37.27
21566;BME280;10943;48.738;9.320;2022-09-17T09:34:20;98696.22;;;20.81;39.67
21566;BME280;10943;48.738;9.320;2022-09-17T09:36:49;98692.06;;;19.46;43.35
21566;BME280;10943;48.738;9.320;2022-09-17T09:39:24;98689.09;;;19.37;43.39
21566;BME280;10943;48.738;9.320;2022-09-17T09:42:09;98696.22;;;19.29;44.56
21566;BME280;10943;48.738;9.320;2022-09-17T09:44:51;98689.53;;;19.63;43.20
21566;BME280;10943;48.738;9.320;2022-09-17T09:50:53;98692.47;;;19.91;44.68
21566;BME280;10943;48.738;9.320;2022-09-17T09:59:25;98699.78;;;19.92;44.53
21566;BME280;10943;48.738;9.320;2022-09-17T10:01:53;98698.81;;;19.83;43.16
21566;BME280;10943;48.738;9.320;2022-09-17T10:04:24;98706.63;;;19.10;44.52
21566;BME280;10943;48.738;9.320;2022-09-17T10:07:04;98707.75;;;19.09;44.19
21566;BME280;10943;48.738;9.320;2022-09-17T10:09:36;98709.88;;;19.17;44.17
21566;BME280;10943;48.738;9.320;2022-09-17T10:12:16;98699.34;;;19.28;44.00
21566;BME280;10943;48.738;9.320;2022-09-17T10:14:46;98701.38;;;19.22;45.11
21566;BME280;10943;48.738;9.320;2022-09-17T10:17:23;98695.19;;;19.25;44.55
21566;BME280;10943;48.738;9.320;2022-09-17T10:20:15;98701.06;;;19.05;45.04
21566;BME280;10943;48.738;9.320;2022-09-17T10:22:49;98701.66;;;18.53;44.71
21566;BME280;10943;48.738;9.320;2022-09-17T10:27:59;98694.53;;;19.67;42.25
21566;BME280;10943;48.738;9.320;2022-09-17T10:31:04;98697.66;;;20.17;40.79
21566;BME280;10943;48.738;9.320;2022-09-17T10:36:45;98685.59;;;19.65;42.21
21566;BME280;10943;48.738;9.320;2022-09-17T10:42:17;98688.25;;;24.76;32.76
21566;BME280;10943;48.738;9.320;2022-09-17T10:44:58;98698.16;;;26.48;30.11
21566;BME280;10943;48.738;9.320;2022-09-17T10:47:43;98700.38;;;26.88;28.58
21566;BME280;10943;48.738;9.320;2022-09-17T10:50:31;98692.69;;;27.13;28.29
21566;BME280;10943;48.738;9.320;2022-09-17T10:53:15;98686.13;;;25.75;29.85
21566;BME280;10943;48.738;9.320;2022-09-17T10:59:14;98686.63;;;27.93;25.83
21566;BME280;10943;48.738;9.320;2022-09-17T11:05:37;98679.63;;;25.75;29.06
21566;BME280;10943;48.738;9.320;2022-09-17T11:31:07;98661.44;;;29.00;23.32
21566;BME280;10943;48.738;9.320;2022-09-17T11:37:22;98667.50;;;26.54;25.66
21566;BME280;10943;48.738;9.320;2022-09-17T11:40:16;98664.28;;;25.55;26.82
21566;BME280;10943;48.738;9.320;2022-09-17T11:43:02;98660.94;;;25.01;27.82
21566;BME280;10943;48.738;9.320;2022-09-17T11:45:51;98659.03;;;24.37;28.53
21566;BME280;10943;48.738;9.320;2022-09-17T11:48:47;98655.28;;;23.28;30.40
21566;BME280;10943;48.738;9.320;2022-09-17T11:51:55;98652.44;;;23.28;30.35
21566;BME280;10943;48.738;9.320;2022-09-17T11:57:26;98633.19;;;22.40;30.57
21566;BME280;10943;48.738;9.320;2022-09-17T12:05:56;98632.00;;;24.48;27.86
21566;BME280;10943;48.738;9.320;2022-09-17T12:11:33;98633.22;;;22.98;30.13
21566;BME280;10943;48.738;9.320;2022-09-17T12:14:18;98630.47;;;22.04;31.43
21566;BME280;10943;48.738;9.320;2022-09-17T12:16:56;98622.31;;;21.71;31.99
21566;BME280;10943;48.738;9.320;2022-09-17T12:19:43;98618.34;;;21.72;34.53
21566;BME280;10943;48.738;9.320;2022-09-17T12:22:27;98618.22;;;21.04;35.79
21566;BME280;10943;48.738;9.320;2022-09-17T12:24:59;98621.22;;;20.71;34.70
21566;BME280;10943;48.738;9.320;2022-09-17T12:30:37;98609.41;;;19.80;35.74
21566;BME280;10943;48.738;9.320;2022-09-17T12:33:48;98624.19;;;18.52;42.71
21566;BME280;10943;48.738;9.320;2022-09-17T12:42:53;98645.84;;;18.22;48.86
21566;BME280;10943;48.738;9.320;2022-09-17T13:00:58;98614.50;;;20.25;47.66
21566;BME280;10943;48.738;9.320;2022-09-17T13:03:43;98615.94;;;20.08;45.22
21566;BME280;10943;48.738;9.320;2022-09-17T13:15:00;98643.50;;;18.78;42.78
21566;BME280;10943;48.738;9.320;2022-09-17T13:23:45;98672.59;;;17.45;45.52
21566;BME280;10943;48.738;9.320;2022-09-17T13:26:19;98676.00;;;16.82;47.15
21566;BME280;10943;48.738;9.320;2022-09-17T13:28:50;98679.47;;;16.58;47.36
21566;BME280;10943;48.738;9.320;2022-09-17T13:31:21;98673.31;;;16.51;47.72
21566;BME280;10943;48.738;9.320;2022-09-17T13:34:30;98679.31;;;16.99;47.09
21566;BME280;10943;48.738;9.320;2022-09-17T13:37:04;98665.50;;;17.13;46.99
21566;BME280;10943;48.738;9.320;2022-09-17T13:39:48;98675.88;;;17.87;46.27
21566;BME280;10943;48.738;9.320;2022-09-17T13:42:46;98681.56;;;18.17;45.12
21566;BME280;10943;48.738;9.320;2022-09-17T13:45:18;98685.38;;;17.62;47.29
21566;BME280;10943;48.738;9.320;2022-09-17T13:58:34;98664.31;;;19.58;42.47
21566;BME280;10943;48.738;9.320;2022-09-17T14:01:10;98663.53;;;20.80;40.26
21566;BME280;10943;48.738;9.320;2022-09-17T14:09:45;98669.06;;;19.77;42.40
21566;BME280;10943;48.738;9.320;2022-09-17T14:23:54;98672.03;;;18.90;43.72
21566;BME280;10943;48.738;9.320;2022-09-17T14:32:23;98660.13;;;20.08;40.92
21566;BME280;10943;48.738;9.320;2022-09-17T14:35:13;98655.22;;;19.81;41.16
21566;BME280;10943;48.738;9.320;2022-09-17T14:37:57;98658.28;;;19.84;41.55
21566;BME280;10943;48.738;9.320;2022-09-17T14:40:31;98651.03;;;19.97;41.32
21566;BME280;10943;48.738;9.320;2022-09-17T14:43:02;98660.53;;;20.01;41.06
21566;BME280;10943;48.738;9.320;2022-09-17T14:45:36;98654.94;;;20.15;40.19
21566;BME280;10943;48.738;9.320;2022-09-17T14:51:26;98648.28;;;20.39;40.17
21566;BME280;10943;48.738;9.320;2022-09-17T14:59:57;98635.84;;;19.08;43.17
21566;BME280;10943;48.738;9.320;2022-09-17T15:02:40;98642.63;;;19.59;42.80
21566;BME280;10943;48.738;9.320;2022-09-17T15:10:55;98635.31;;;19.77;41.44
21566;BME280;10943;48.738;9.320;2022-09-17T15:13:29;98637.41;;;19.52;42.37
21566;BME280;10943;48.738;9.320;2022-09-17T15:16:04;98633.19;;;19.17;43.02
21566;BME280;10943;48.738;9.320;2022-09-17T15:21:51;98634.88;;;19.18;43.30
21566;BME280;10943;48.738;9.320;2022-09-17T15:27:24;98630.09;;;18.51;44.22
21566;BME280;10943;48.738;9.320;2022-09-17T15:33:03;98626.22;;;18.22;44.50
21566;BME280;10943;48.738;9.320;2022-09-17T15:36:00;98628.88;;;18.08;45.67
21566;BME280;10943;48.738;9.320;2022-09-17T15:38:50;98629.91;;;17.88;46.05
21566;BME280;10943;48.738;9.320;2022-09-17T15:44:07;98637.84;;;17.76;46.32
21566;BME280;10943;48.738;9.320;2022-09-17T15:46:53;98635.00;;;17.81;46.23
21566;BME280;10943;48.738;9.320;2022-09-17T15:49:31;98623.22;;;17.84;46.00
21566;BME280;10943;48.738;9.320;2022-09-17T15:52:37;98632.78;;;18.12;45.20
21566;BME280;10943;48.738;9.320;2022-09-17T15:55:26;98635.53;;;18.18;44.92
21566;BME280;10943;48.738;9.320;2022-09-17T15:57:58;98632.63;;;17.98;45.50
21566;BME280;10943;48.738;9.320;2022-09-17T16:00:26;98641.75;;;17.80;45.27
21566;BME280;10943;48.738;9.320;2022-09-17T16:02:54;98636.66;;;18.17;44.40
21566;BME280;10943;48.738;9.320;2022-09-17T16:08:20;98626.53;;;17.86;44.49
21566;BME280;10943;48.738;9.320;2022-09-17T16:10:49;98634.66;;;17.58;45.48
21566;BME280;10943;48.738;9.320;2022-09-17T16:13:20;98634.91;;;17.62;45.30
21566;BME280;10943;48.738;9.320;2022-09-17T16:15:54;98630.53;;;17.80;44.74
21566;BME280;10943;48.738;9.320;2022-09-17T16:18:22;98632.63;;;17.29;45.53
21566;BME280;10943;48.738;9.320;2022-09-17T16:20:49;98639.91;;;17.25;45.98
21566;BME280;10943;48.738;9.320;2022-09-17T16:23:17;98628.56;;;17.11;46.51
21566;BME280;10943;48.738;9.320;2022-09-17T16:25:44;98627.53;;;16.97;46.31
21566;BME280;10943;48.738;9.320;2022-09-17T16:28:17;98640.66;;;16.96;46.63
21566;BME280;10943;48.738;9.320;2022-09-17T16:30:48;98644.06;;;16.83;47.30
21566;BME280;10943;48.738;9.320;2022-09-17T16:33:17;98653.31;;;16.78;47.03
21566;BME280;10943;48.738;9.320;2022-09-17T16:35:45;98635.50;;;17.19;46.75
21566;BME280;10943;48.738;9.320;2022-09-17T16:38:13;98654.22;;;17.63;45.74
21566;BME280;10943;48.738;9.320;2022-09-17T16:40:44;98646.31;;;18.05;44.53
21566;BME280;10943;48.738;9.320;2022-09-17T16:43:15;98653.50;;;17.82;44.82
21566;BME280;10943;48.738;9.320;2022-09-17T16:45:57;98644.81;;;18.13;44.01
21566;BME280;10943;48.738;9.320;2022-09-17T16:48:31;98647.22;;;18.25;43.84
21566;BME280;10943;48.738;9.320;2022-09-17T16:50:59;98647.72;;;18.03;43.78
21566;BME280;10943;48.738;9.320;2022-09-17T16:53:28;98643.44;;;17.76;44.74
21566;BME280;10943;48.738;9.320;2022-09-17T16:55:55;98651.59;;;17.43;45.69
21566;BME280;10943;48.738;9.320;2022-09-17T16:58:23;98639.13;;;17.59;45.20
21566;BME280;10943;48.738;9.320;2022-09-17T17:00:50;98640.44;;;17.32;46.14
21566;BME280;10943;48.738;9.320;2022-09-17T17:03:18;98641.28;;;17.33;45.86
21566;BME280;10943;48.738;9.320;2022-09-17T17:05:46;98639.84;;;17.36;45.95
21566;BME280;10943;48.738;9.320;2022-09-17T17:08:13;98637.34;;;17.34;45.95
21566;BME280;10943;48.738;9.320;2022-09-17T17:10:41;98643.34;;;17.17;46.46
21566;BME280;10943;48.738;9.320;2022-09-17T17:13:34;98641.56;;;16.81;47.39
21566;BME280;10943;48.738;9.320;2022-09-17T17:16:08;98648.59;;;16.79;47.60
21566;BME280;10943;48.738;9.320;2022-09-17T17:18:37;98644.06;;;16.83;46.98
21566;BME280;10943;48.738;9.320;2022-09-17T17:21:07;98639.28;;;16.94;47.02
21566;BME280;10943;48.738;9.320;2022-09-17T17:23:37;98647.16;;;16.81;47.69
21566;BME280;10943;48.738;9.320;2022-09-17T17:26:04;98655.25;;;16.93;48.00
21566;BME280;10943;48.738;9.320;2022-09-17T17:28:34;98674.59;;;16.85;49.59
21566;BME280;10943;48.738;9.320;2022-09-17T17:31:03;98670.78;;;16.55;52.90
21566;BME280;10943;48.738;9.320;2022-09-17T17:33:32;98678.13;;;16.30;54.28
21566;BME280;10943;48.738;9.320;2022-09-17T17:36:03;98668.97;;;15.88;56.06
21566;BME280;10943;48.738;9.320;2022-09-17T17:38:38;98672.28;;;15.49;58.85
21566;BME280;10943;48.738;9.320;2022-09-17T17:41:11;98678.13;;;15.32;60.00
21566;BME280;10943;48.738;9.320;2022-09-17T17:43:42;98658.84;;;15.30;60.95
21566;BME280;10943;48.738;9.320;2022-09-17T17:46:15;98668.31;;;15.19;61.12
21566;BME280;10943;48.738;9.320;2022-09-17T17:48:48;98671.13;;;15.19;61.41